Marcus, Iowa
Current Conditions -  °F | °C
As of 10:35 PM on Tuesday 21 Oct 2014 (Local Time) from KCKP Reporting Station
Clear Clear  
Wind Chill: 54°   Ceiling: Unl
Heat Index: 54°   Visibility: 10mi
Dew Point: 43°   Wind: 12mph
Humidity: 68%   Direction: 140°SE
Pressure: 30.1"   Gusts: 18mph
Location:  42.83°N, 95.81°W
Report Text: KCKP 220335Z AUTO 14010G16KT 10SM CLR 12/06 A3010 RMK AO2 T01200062
Loading
Personal Weather Stations






























Interactive Weather Map
Tropical Storm Tracking
New forecast layout! Learn more

10-Day Weather Forecast

Advertisements
Track Severe Weather on mobile